Latest Weather Observations for Cape Bruny AWS

IDT60901

Issued at 11:55 pm EDT Monday 20 October 2014 (issued every 10 minutes, with the page automatically refreshed every 10 minutes)

About weather observations | Map of Hobart area stations | Latest observations for Hobart area | Other Formats
Station Details ID: 094198 Name: CAPE BRUNY (CAPE BRUNY) Lat: -43.49 Lon: 147.14 Height: 59.7 m
Data from the previous 72 hours. | See also: Recent months at Cape Bruny AWS
Date/Time
EDT
Tmp

°C
App
Tmp
°C
Dew
Point
°C
Rel
Hum
%
Delta-T

°C
Wind Press
QNH
hPa
Press
MSL
hPa
Rain
since
9 am
mm
Dir
 
Spd
km/h
Gust
km/h
Spd
kts
Gust
kts
20/11:30pm 8.6 5.1 3.4 70 2.2 N 11 13 6 7 1034.2 1034.3 0.0
20/11:00pm 8.5 5.8 2.9 68 2.4 NE 6 9 3 5 1034.6 1034.7 0.0
20/10:30pm 9.3 7.3 2.4 62 2.9 S 2 7 1 4 1034.8 1034.9 0.0
20/10:00pm 9.3 7.0 2.6 63 2.8 SSE 4 9 2 5 1035.0 1035.1 0.0
20/09:30pm 9.5 6.2 2.6 62 2.9 SSW 9 15 5 8 1034.9 1035.0 0.0
20/09:00pm 9.4 5.8 2.7 63 2.8 S 11 17 6 9 1034.8 1034.9 0.0
20/08:30pm 9.5 6.3 2.8 63 2.9 SSW 9 15 5 8 1034.6 1034.7 0.0
20/08:00pm 9.4 5.4 2.9 64 2.8 SW 13 20 7 11 1034.3 1034.4 0.0
20/07:30pm 9.5 5.2 3.0 64 2.8 SW 15 24 8 13 1034.1 1034.2 0.0
20/07:00pm 9.7 5.4 3.2 64 2.8 SSW 15 22 8 12 1034.0 1034.1 0.0
20/06:30pm 9.8 4.2 3.5 65 2.7 SW 22 32 12 17 1033.9 1034.0 0.0
20/06:00pm 10.1 4.9 3.6 64 2.8 SW 20 30 11 16 1033.7 1033.8 0.0
20/05:30pm 10.7 5.6 4.0 63 3.0 SW 20 35 11 19 1033.7 1033.8 0.0
20/05:00pm 11.6 7.0 3.9 59 3.4 SW 17 32 9 17 1033.7 1033.8 0.0
20/04:30pm 11.3 5.3 3.1 57 3.6 SW 24 35 13 19 1033.5 1033.6 0.0
20/04:00pm 11.3 6.3 3.6 59 3.4 SW 19 30 10 16 1033.5 1033.6 0.0
20/03:30pm 12.1 7.2 3.9 57 3.7 SW 19 32 10 17 1033.4 1033.5 0.0
20/03:00pm 11.8 5.6 2.3 52 4.1 SW 24 41 13 22 1033.4 1033.5 0.0
20/02:30pm 12.3 5.7 4.3 58 3.6 SW 28 39 15 21 1033.5 1033.6 0.0
20/02:00pm 11.8 4.9 2.8 54 3.9 SW 28 37 15 20 1033.8 1033.9 0.0
20/01:30pm 11.1 4.8 1.6 52 4.0 SW 24 41 13 22 1033.9 1034.0 0.0
20/01:00pm 11.9 5.0 2.6 53 4.0 SW 28 35 15 19 1034.0 1034.1 0.0
20/12:30pm 12.2 7.3 4.2 58 3.6 SW 19 32 10 17 1034.1 1034.2 0.0
20/12:00pm 12.0 7.2 2.5 52 4.1 WSW 17 24 9 13 1034.2 1034.3 0.0
20/11:30am 11.5 6.7 2.5 54 3.9 SW 17 22 9 12 1034.3 1034.4 0.0
20/11:00am 10.7 6.4 3.0 59 3.3 WSW 15 22 8 12 1034.2 1034.3 0.0
20/10:30am 11.3 7.3 2.9 56 3.7 WSW 13 20 7 11 1034.0 1034.1 0.0
20/10:00am 11.0 4.7 1.8 53 3.9 WSW 24 35 13 19 1033.7 1033.8 0.0
20/09:30am 9.0 3.0 1.2 58 3.2 WSW 22 32 12 17 1033.4 1033.5 0.0
20/09:00am 9.7 4.2 0.3 52 3.8 WSW 19 26 10 14 1033.1 1033.2 5.4
20/08:30am 9.9 4.1 -1.2 46 4.3 SW 19 30 10 16 1032.7 1032.8 5.4
20/08:00am 9.0 3.0 -1.7 47 4.1 WSW 20 32 11 17 1032.3 1032.4 5.4
20/07:30am 8.6 1.5 -1.2 50 3.8 SW 26 41 14 22 1031.7 1031.8 5.4
20/07:00am 8.2 0.7 -1.3 51 3.6 SW 28 37 15 20 1031.4 1031.5 5.4
20/06:30am 7.8 0.3 -1.7 51 3.6 SW 28 41 15 22 1031.2 1031.3 5.4
20/06:00am 7.9 0.7 0.6 60 2.9 WSW 28 39 15 21 1030.7 1030.8 5.4
20/05:30am 7.9 0.4 0.9 61 2.8 SW 30 41 16 22 1030.3 1030.4 5.4
20/05:00am 8.3 0.8 1.5 62 2.8 SW 30 44 16 24 1029.7 1029.8 5.4
20/04:32am 8.0 0.3 -0.2 56 3.2 SW 30 48 16 26 1029.3 1029.4 5.4
20/04:30am 8.0 -0.1 -0.5 55 3.3 SW 32 48 17 26 1029.3 1029.4 5.4
20/04:00am 7.8 -1.0 -1.2 53 3.4 SW 35 50 19 27 1029.0 1029.1 5.4
20/03:30am 7.9 -1.1 -2.4 48 3.8 SW 35 48 19 26 1028.7 1028.8 5.4
20/03:00am 7.9 -0.7 -0.1 57 3.1 SW 35 50 19 27 1028.6 1028.7 5.4
20/02:36am 8.1 -0.3 -1.1 52 3.5 SW 33 52 18 28 1028.3 1028.4 5.4
20/02:30am 8.1 -0.2 -0.4 55 3.3 SW 33 46 18 25 1028.3 1028.4 5.4
20/02:00am 7.8 -1.8 -1.7 51 3.6 SW 39 52 21 28 1027.9 1028.0 5.4
20/01:34am 7.6 -2.0 -1.4 53 3.4 SW 39 57 21 31 1027.8 1027.9 5.4
20/01:30am 8.0 -1.9 -1.2 52 3.5 SW 41 57 22 31 1027.8 1027.9 5.4
20/01:28am 8.1 -1.4 -0.4 55 3.3 SW 39 57 21 31 1027.7 1027.8 5.4
20/01:00am 7.8 -1.9 0.8 61 2.8 SW 41 50 22 27 1027.5 1027.6 5.4
20/12:30am 7.5 0.0 1.1 64 2.6 SW 30 52 16 28 1027.2 1027.3 5.4
20/12:16am 6.9 -0.4 2.2 72 1.9 SW 30 48 16 26 1027.1 1027.2 5.4
20/12:00am 7.8 -0.1 2.3 68 2.3 SW 33 46 18 25 1026.5 1026.5 5.4
 
Date/Time
EDT
Tmp

°C
App
Tmp
°C
Dew
Point
°C
Rel
Hum
%
Delta-T

°C
Wind Press
QNH
hPa
Press
MSL
hPa
Rain
since
9 am
mm
Dir
 
Spd
km/h
Gust
km/h
Spd
kts
Gust
kts
19/11:30pm 7.3 -1.5 1.6 67 2.3 WSW 37 46 20 25 1026.2 1026.2 5.4
19/11:05pm 7.2 -2.1 0.4 62 2.7 SW 39 57 21 31 1026.0 1026.0 5.4
19/11:00pm 7.0 -2.3 0.7 64 2.5 SW 39 52 21 28 1025.9 1025.9 5.4
19/10:59pm 6.9 -2.4 0.4 63 2.6 SW 39 57 21 31 1025.9 1025.9 5.4
19/10:30pm 7.4 -2.7 3.8 78 1.5 WSW 46 56 25 30 1025.3 1025.3 5.2
19/10:00pm 6.1 -5.6 3.3 82 1.2 W 54 74 29 40 1024.5 1024.5 5.2
19/09:30pm 7.1 -2.1 3.7 79 1.5 SW 41 63 22 34 1024.5 1024.5 4.6
19/09:22pm 6.6 -2.1 3.9 83 1.2 SW 39 57 21 31 1024.4 1024.4 4.4
19/09:00pm 8.3 -1.6 2.8 68 2.3 W 44 63 24 34 1023.6 1023.6 3.2
19/08:47pm 8.8 -2.4 1.9 62 2.9 WSW 50 69 27 37 1023.2 1023.2 3.2
19/08:43pm 8.8 -3.8 1.5 60 3.0 WSW 57 69 31 37 1023.0 1023.0 3.2
19/08:30pm 8.3 -0.2 3.0 69 2.3 SW 37 56 20 30 1022.7 1022.7 3.2
19/08:00pm 8.6 -1.1 2.6 66 2.5 WSW 43 63 23 34 1021.6 1021.6 3.2
19/07:36pm 8.2 -1.9 1.4 62 2.8 WSW 44 63 24 34 1020.8 1020.8 3.2
19/07:30pm 8.4 -1.9 2.4 66 2.5 WSW 46 63 25 34 1020.7 1020.7 3.2
19/07:20pm 8.3 -0.8 3.9 74 1.9 SW 41 59 22 32 1020.6 1020.6 3.2
19/07:19pm 8.3 -0.8 3.9 74 1.9 SW 41 56 22 30 1020.6 1020.6 3.0
19/07:00pm 8.2 0.1 5.3 82 1.3 W 37 52 20 28 1020.1 1020.1 3.0
19/06:30pm 7.3 -3.3 4.9 85 1.1 WSW 50 72 27 39 1019.6 1019.6 2.8
19/06:22pm 7.6 -2.3 4.7 82 1.3 WSW 46 69 25 37 1019.3 1019.3 2.6
19/06:00pm 8.1 -2.3 4.1 76 1.7 WSW 48 61 26 33 1018.1 1018.2 2.6
19/05:30pm 7.8 -1.5 5.8 87 0.9 WSW 44 57 24 31 1018.4 1018.5 2.4
19/05:00pm 8.5 -0.6 6.1 85 1.1 W 43 57 23 31 1017.8 1017.9 2.0
19/04:48pm 8.7 -0.3 6.3 85 1.1 W 43 61 23 33 1017.6 1017.7 1.8
19/04:30pm 9.0 0.5 6.8 86 1.0 WSW 41 52 22 28 1017.4 1017.5 1.8
19/04:00pm 8.8 1.4 6.8 87 0.9 W 35 48 19 26 1017.2 1017.3 1.6
19/03:30pm 9.1 1.0 7.1 87 0.9 W 39 48 21 26 1017.1 1017.2 1.4
19/03:00pm 8.9 -0.6 6.5 85 1.1 W 46 61 25 33 1016.6 1016.7 1.4
19/02:30pm 9.1 -1.0 7.2 88 0.9 W 50 69 27 37 1016.9 1017.0 1.2
19/02:18pm 9.3 0.0 7.4 88 0.9 WSW 46 65 25 35 1016.8 1016.9 1.0
19/02:00pm 9.7 -0.4 7.6 87 1.0 WSW 50 61 27 33 1016.3 1016.4 0.8
19/01:30pm 9.7 -0.1 7.0 83 1.3 WSW 48 61 26 33 1016.2 1016.3 0.2
19/01:00pm 10.0 0.3 7.4 84 1.2 WSW 48 67 26 36 1016.3 1016.4 0.0
19/12:40pm 11.3 2.1 8.0 80 1.6 WSW 46 69 25 37 1015.8 1015.9 0.0
19/12:30pm 12.4 3.8 8.1 75 2.1 WSW 43 54 23 29 1015.8 1015.9 0.0
19/12:10pm 12.6 3.8 7.3 70 2.6 W 43 61 23 33 1015.4 1015.5 0.0
19/12:00pm 12.6 4.0 8.3 75 2.1 W 43 54 23 29 1015.3 1015.4 0.0
19/11:32am 11.5 2.1 8.7 83 1.4 WSW 48 67 26 36 1015.6 1015.7 0.0
19/11:30am 11.7 2.0 8.9 83 1.4 WSW 50 67 27 36 1015.6 1015.7 0.0
19/11:00am 14.1 8.0 8.3 68 2.9 WSW 30 50 16 27 1015.4 1015.5 0.0
19/10:30am 14.2 10.1 8.8 70 2.7 W 20 32 11 17 1015.2 1015.3 0.0
19/10:00am 14.1 10.3 8.9 71 2.6 WSW 19 26 10 14 1015.0 1015.1 0.0
19/09:30am 14.3 8.7 8.7 69 2.8 W 28 35 15 19 1014.7 1014.8 0.0
19/09:00am 14.1 8.3 7.9 66 3.1 WNW 28 41 15 22 1014.4 1014.5 0.0
19/08:52am 13.9 8.2 8.3 69 2.8 WNW 28 39 15 21 1014.2 1014.3 0.0
19/08:30am 13.1 10.2 9.7 80 1.7 W 15 19 8 10 1014.7 1014.8 0.0
19/08:00am 13.5 9.9 9.7 78 2.0 WSW 19 24 10 13 1014.2 1014.3 0.0
19/07:30am 13.1 8.2 9.9 81 1.6 SW 26 33 14 18 1014.1 1014.2 0.0
19/07:00am 12.9 7.7 10.1 83 1.4 WSW 28 39 15 21 1013.9 1014.0 0.0
19/06:30am 13.4 9.7 10.0 80 1.8 SW 20 32 11 17 1012.7 1012.7 0.0
19/06:00am 15.5 13.5 8.7 64 3.5 W 9 20 5 11 1012.2 1012.2 0.0
19/05:30am 15.9 11.5 8.9 63 3.6 W 22 30 12 16 1012.2 1012.2 0.0
19/05:00am 16.2 13.1 7.4 56 4.4 W 13 19 7 10 1011.5 1011.5 0.0
19/04:30am 16.0 12.0 5.0 48 5.2 NNW 15 20 8 11 1011.3 1011.3 0.0
19/04:00am 17.7 12.6 4.3 41 6.4 NW 20 28 11 15 1011.2 1011.2 0.0
19/03:30am 17.2 12.2 3.8 41 6.3 N 19 26 10 14 1011.3 1011.3 0.0
19/03:00am 17.9 13.2 3.4 38 6.8 NNW 17 30 9 16 1011.4 1011.4 0.0
19/02:30am 18.6 13.3 2.9 35 7.3 NNW 20 35 11 19 1011.4 1011.4 0.0
19/02:00am 18.1 12.5 3.6 38 6.8 N 22 35 12 19 1011.4 1011.4 0.0
19/01:30am 18.5 12.3 4.3 39 6.8 N 26 39 14 21 1011.7 1011.7 0.0
19/01:00am 17.6 11.6 5.5 45 5.9 N 26 37 14 20 1012.1 1012.1 0.0
19/12:30am 17.1 11.7 6.3 49 5.3 N 24 35 13 19 1012.4 1012.4 0.0
19/12:00am 17.2 11.5 6.7 50 5.2 NNW 26 37 14 20 1012.9 1013.0 0.0
 
Date/Time
EDT
Tmp

°C
App
Tmp
°C
Dew
Point
°C
Rel
Hum
%
Delta-T

°C
Wind Press
QNH
hPa
Press
MSL
hPa
Rain
since
9 am
mm
Dir
 
Spd
km/h
Gust
km/h
Spd
kts
Gust
kts
18/11:30pm 15.8 12.0 7.6 58 4.1 NE 17 24 9 13 1013.2 1013.3 0.0
18/11:00pm 16.6 12.7 7.0 53 4.8 NNE 17 24 9 13 1013.5 1013.6 0.0
18/10:30pm 17.0 12.1 6.8 51 5.1 N 22 35 12 19 1013.9 1014.0 0.0
18/10:00pm 18.0 11.8 6.2 46 5.8 N 28 39 15 21 1013.4 1013.5 0.0
18/09:30pm 17.8 12.9 6.7 48 5.5 NNW 22 30 12 16 1014.3 1014.4 0.0
18/09:00pm 18.4 13.4 6.3 45 6.0 N 22 35 12 19 1014.1 1014.2 0.0
18/08:30pm 18.2 13.8 6.4 46 5.9 N 19 26 10 14 1014.1 1014.2 0.0
18/08:00pm 18.2 13.8 6.4 46 5.9 N 19 30 10 16 1014.7 1014.8 0.0
18/07:30pm 18.3 13.5 5.8 44 6.1 N 20 32 11 17 1015.2 1015.3 0.0
18/07:00pm 18.3 13.7 5.5 43 6.2 N 19 33 10 18 1015.6 1015.7 0.0
18/06:30pm 18.4 14.0 4.6 40 6.6 NNW 17 24 9 13 1016.5 1016.6 0.0
18/06:00pm 18.5 13.4 4.3 39 6.8 NW 20 32 11 17 1016.9 1017.0 0.0
18/05:30pm 17.7 13.9 5.6 45 5.9 N 15 20 8 11 1017.0 1017.1 0.0
18/05:00pm 19.0 15.7 4.7 39 6.9 NNE 11 17 6 9 1017.0 1017.1 0.0
18/04:30pm 18.9 14.9 2.7 34 7.5 N 13 20 7 11 1017.1 1017.2 0.0
18/04:00pm 19.7 12.7 1.7 30 8.2 NW 28 41 15 22 1017.5 1017.6 0.0
18/03:30pm 19.2 13.2 3.4 35 7.4 NW 24 33 13 18 1017.6 1017.7 0.0
18/03:00pm 19.8 16.3 5.5 39 7.0 N 13 24 7 13 1018.0 1018.1 0.0
18/02:30pm 17.9 13.1 4.8 42 6.3 NNE 19 26 10 14 1018.6 1018.7 0.0
18/02:00pm 18.2 13.8 4.7 41 6.5 NNE 17 24 9 13 1019.0 1019.1 0.0
18/01:30pm 18.0 13.3 5.9 45 5.9 NNE 20 28 11 15 1019.4 1019.4 0.0
18/01:00pm 16.5 12.6 5.5 48 5.3 NNE 15 20 8 11 1019.7 1019.7 0.0
18/12:30pm 16.8 12.7 6.3 50 5.2 NNE 17 26 9 14 1020.1 1020.1 0.0
18/12:00pm 17.6 12.9 5.2 44 6.0 NNE 19 32 10 17 1020.1 1020.1 0.0
18/11:30am 16.8 12.2 5.7 48 5.4 NNE 19 28 10 15 1020.8 1020.8 0.0
18/11:00am 15.7 11.2 5.9 52 4.7 NNE 19 33 10 18 1021.4 1021.4 0.0
18/10:30am 14.9 10.2 6.2 56 4.2 NNE 20 30 11 16 1022.1 1022.1 0.0
18/10:00am 14.0 9.6 6.4 60 3.6 NNE 19 28 10 15 1022.6 1022.6 0.0
18/09:30am 12.4 8.3 4.6 59 3.6 N 15 22 8 12 1023.0 1023.0 0.0
18/09:00am 11.4 7.4 6.5 72 2.3 N 17 26 9 14 1023.2 1023.2 0.0
18/08:30am 9.2 5.4 5.8 79 1.6 NNE 15 22 8 12 1023.5 1023.5 0.0
18/08:00am 9.3 5.0 5.3 76 1.8 N 17 22 9 12 1024.1 1024.1 0.0
18/07:30am 9.1 4.8 5.1 76 1.8 N 17 22 9 12 1024.3 1024.3 0.0
18/07:00am 8.7 4.8 5.3 79 1.5 N 15 20 8 11 1024.3 1024.3 0.0
18/06:30am 8.5 4.6 5.4 81 1.4 N 15 20 8 11 1024.1 1024.1 0.0
18/06:00am 8.5 4.3 5.6 82 1.3 N 17 20 9 11 1024.2 1024.2 0.0
18/05:30am 8.5 4.3 5.6 82 1.3 N 17 20 9 11 1024.0 1024.0 0.0
18/05:00am 8.3 5.2 5.6 83 1.2 N 11 17 6 9 1024.2 1024.2 0.0
18/04:30am 7.9 5.2 5.4 84 1.1 N 9 15 5 8 1024.6 1024.6 0.0
18/04:00am 7.8 5.0 5.1 83 1.2 NNW 9 13 5 7 1025.1 1025.1 0.0
18/03:30am 7.5 3.9 4.8 83 1.2 NNW 13 15 7 8 1025.3 1025.3 0.0
18/03:00am 6.8 3.1 4.3 84 1.1 N 13 13 7 7 1025.6 1025.6 0.0
18/02:30am 7.8 5.2 4.2 78 1.6 N 7 11 4 6 1025.9 1025.9 0.0
18/02:00am 7.2 3.6 3.1 75 1.7 N 11 11 6 6 1026.0 1026.0 0.0
18/01:30am 7.7 3.8 3.4 74 1.8 NNE 13 15 7 8 1026.3 1026.3 0.0
18/01:00am 8.4 5.0 3.8 73 2.0 NNE 11 15 6 8 1026.7 1026.7 0.0
18/12:30am 8.0 5.3 3.5 73 1.9 NNE 7 9 4 5 1027.0 1027.1 0.0
18/12:00am 8.3 5.2 3.8 73 1.9 NE 9 11 5 6 1027.0 1027.1 0.0

Latest Capital City Observations: Canberra | Sydney | Melbourne | Brisbane | Adelaide | Perth | Hobart | Darwin

Other Formats:

Comma delimited format used in spreadsheet applications
http://www.bom.gov.au/fwo/IDT60901/IDT60901.95967.axf

JavaScript Object Notation format (JSON) in row-major order
http://www.bom.gov.au/fwo/IDT60901/IDT60901.95967.json